createdAt,value
2022-08-22T00:01:28.109Z,17.57
2022-08-22T00:02:45.362Z,20.70
2022-08-22T00:02:53.534Z,19.95
2022-08-22T00:02:53.748Z,19.69
2022-08-22T00:03:12.821Z,19.68
2022-08-22T00:04:28.756Z,17.62
2022-08-22T00:07:39.170Z,17.66
2022-08-22T00:10:46.737Z,17.42
2022-08-22T00:13:26.164Z,17.61
2022-08-22T00:16:09.617Z,17.64
2022-08-22T00:18:51.198Z,17.59
2022-08-22T00:21:27.672Z,17.50
2022-08-22T00:24:37.215Z,17.49
2022-08-22T00:27:18.075Z,17.39
2022-08-22T00:29:54.723Z,17.40
2022-08-22T00:32:43.038Z,17.55
2022-08-22T00:35:26.989Z,17.63
2022-08-22T00:38:18.769Z,17.57
2022-08-22T00:41:31.635Z,17.42
2022-08-22T00:44:28.201Z,17.30
2022-08-22T00:47:18.637Z,17.54
2022-08-22T00:50:04.535Z,17.42
2022-08-22T00:52:59.912Z,17.47
2022-08-22T00:56:03.476Z,17.47
2022-08-22T00:59:11.996Z,17.53
2022-08-22T01:02:15.140Z,17.29
2022-08-22T01:04:58.313Z,17.36
2022-08-22T01:07:49.237Z,17.28
2022-08-22T01:10:28.721Z,17.15
2022-08-22T01:13:28.499Z,17.32
2022-08-22T01:16:24.683Z,17.39
2022-08-22T01:19:07.078Z,17.37
2022-08-22T01:21:59.122Z,17.24
2022-08-22T01:24:36.016Z,17.19
2022-08-22T01:27:35.873Z,17.32
2022-08-22T01:30:39.466Z,17.40
2022-08-22T01:33:35.294Z,17.32
2022-08-22T01:36:18.450Z,17.43
2022-08-22T01:39:14.324Z,17.38
2022-08-22T01:42:07.127Z,17.32
2022-08-22T01:44:56.369Z,17.35
2022-08-22T01:47:37.514Z,17.44
2022-08-22T01:50:26.024Z,17.57
2022-08-22T01:53:06.089Z,17.32
2022-08-22T01:56:25.873Z,17.41
2022-08-22T01:59:02.879Z,17.60
2022-08-22T02:01:42.603Z,17.44
2022-08-22T02:04:16.421Z,17.49
2022-08-22T02:07:09.260Z,17.36
2022-08-22T02:10:05.365Z,17.17
2022-08-22T02:12:45.338Z,17.46
2022-08-22T02:15:23.076Z,17.29
2022-08-22T02:18:02.936Z,17.21
2022-08-22T02:20:36.891Z,17.48
2022-08-22T02:23:04.632Z,17.27
2022-08-22T02:25:46.813Z,17.45
2022-08-22T02:28:39.455Z,17.40
2022-08-22T02:31:27.209Z,17.34
2022-08-22T02:33:58.679Z,17.39
2022-08-22T02:36:50.729Z,17.61
2022-08-22T02:39:50.497Z,17.48
2022-08-22T02:42:23.323Z,17.42
2022-08-22T02:45:04.077Z,17.29
2022-08-22T02:48:13.484Z,17.25
2022-08-22T02:51:02.023Z,17.04
2022-08-22T02:53:46.468Z,17.03
2022-08-22T02:56:22.305Z,17.30
2022-08-22T02:59:12.403Z,17.27
2022-08-22T03:01:44.991Z,17.13
2022-08-22T03:04:46.966Z,17.11
2022-08-22T03:07:20.722Z,17.21
2022-08-22T03:10:10.992Z,17.32
2022-08-22T03:13:11.535Z,17.30
2022-08-22T03:15:49.370Z,17.34
2022-08-22T03:18:17.056Z,17.45
2022-08-22T03:20:54.270Z,17.38
2022-08-22T03:24:12.202Z,17.49
2022-08-22T03:26:52.584Z,17.33
2022-08-22T03:29:29.357Z,17.31
2022-08-22T03:32:09.419Z,17.57
2022-08-22T03:34:37.942Z,17.69
2022-08-22T03:37:24.530Z,17.71
2022-08-22T03:39:55.374Z,17.66
2022-08-22T03:42:41.519Z,17.62
2022-08-22T03:45:21.190Z,17.67
2022-08-22T03:48:12.295Z,17.82
2022-08-22T03:51:02.085Z,17.85
2022-08-22T03:54:07.681Z,17.85
2022-08-22T03:57:07.672Z,18.00
2022-08-22T04:00:00.307Z,18.12
2022-08-22T04:02:49.149Z,18.10
2022-08-22T04:05:28.848Z,18.39
2022-08-22T04:08:14.571Z,18.33
2022-08-22T04:11:14.698Z,18.43
2022-08-22T04:14:19.349Z,18.55
2022-08-22T04:17:05.650Z,18.59
2022-08-22T04:20:11.035Z,18.66
2022-08-22T04:23:03.796Z,18.64
2022-08-22T04:28:44.092Z,19.02
2022-08-22T04:31:14.558Z,19.23
2022-08-22T04:34:10.146Z,19.50
2022-08-22T04:36:48.534Z,19.79
2022-08-22T04:39:22.212Z,20.18
2022-08-22T04:42:11.135Z,20.36
2022-08-22T04:44:52.807Z,20.51
2022-08-22T04:48:01.849Z,20.64
2022-08-22T04:50:41.249Z,20.82
2022-08-22T04:53:29.698Z,21.20
2022-08-22T04:56:45.491Z,21.41
2022-08-22T04:59:17.363Z,21.69
2022-08-22T05:01:47.228Z,22.10
2022-08-22T05:04:23.436Z,22.40
2022-08-22T05:06:57.102Z,22.57
2022-08-22T05:09:31.012Z,22.91
2022-08-22T05:12:07.593Z,23.21
2022-08-22T05:15:10.404Z,23.58
2022-08-22T05:17:41.989Z,24.21
2022-08-22T05:20:15.833Z,24.47
2022-08-22T05:22:47.949Z,24.64
2022-08-22T05:25:22.204Z,24.54
2022-08-22T05:28:05.571Z,24.46
2022-08-22T05:30:35.299Z,24.32
2022-08-22T05:33:27.613Z,24.35
2022-08-22T05:36:00.532Z,24.27
2022-08-22T05:38:32.423Z,24.27
2022-08-22T05:41:08.289Z,24.12
2022-08-22T05:43:43.663Z,24.07
2022-08-22T05:46:26.963Z,23.97
2022-08-22T05:49:00.176Z,24.04
2022-08-22T05:51:40.129Z,24.10
2022-08-22T05:54:21.961Z,24.20
2022-08-22T05:57:29.202Z,24.31
2022-08-22T06:00:11.797Z,24.51
2022-08-22T06:02:58.340Z,24.83
2022-08-22T06:05:29.563Z,24.99
2022-08-22T06:08:34.785Z,25.15
2022-08-22T06:11:15.206Z,24.96
2022-08-22T06:13:52.290Z,25.39
2022-08-22T06:16:33.561Z,25.35
2022-08-22T06:19:05.090Z,25.40
2022-08-22T06:21:51.094Z,25.62
2022-08-22T06:24:28.044Z,25.63
2022-08-22T06:27:04.320Z,25.93
2022-08-22T06:29:46.124Z,25.74
2022-08-22T06:35:15.840Z,26.35
2022-08-22T06:37:46.634Z,26.31
2022-08-22T06:40:17.699Z,26.44
2022-08-22T06:42:50.763Z,26.77
2022-08-22T06:45:25.658Z,27.01
2022-08-22T06:48:20.409Z,27.12
2022-08-22T06:50:58.885Z,27.48
2022-08-22T06:54:03.897Z,27.75
2022-08-22T06:56:40.066Z,28.13
2022-08-22T06:59:13.065Z,28.04
2022-08-22T07:01:51.092Z,28.31
2022-08-22T07:04:26.289Z,27.79
2022-08-22T07:07:01.037Z,28.03
2022-08-22T07:09:32.493Z,28.24
2022-08-22T07:12:04.959Z,28.45
2022-08-22T07:14:41.894Z,28.48
2022-08-22T07:17:19.140Z,29.02
2022-08-22T07:19:55.778Z,29.00
2022-08-22T07:22:28.935Z,29.29
2022-08-22T07:25:03.347Z,29.08
2022-08-22T07:28:08.080Z,29.09
2022-08-22T07:30:59.191Z,29.65
2022-08-22T07:33:50.044Z,30.00
2022-08-22T07:36:31.794Z,30.00
2022-08-22T07:39:18.457Z,30.63
2022-08-22T07:42:14.223Z,30.90
2022-08-22T07:45:03.457Z,30.51
2022-08-22T07:47:41.328Z,31.02
2022-08-22T07:50:17.465Z,31.06
2022-08-22T07:52:46.443Z,31.20
2022-08-22T07:55:21.046Z,31.18
2022-08-22T07:58:04.177Z,31.58
2022-08-22T08:00:32.995Z,32.08
2022-08-22T08:03:09.152Z,32.62
2022-08-22T08:05:38.778Z,32.89
2022-08-22T08:08:24.809Z,33.12
2022-08-22T08:10:56.581Z,32.96
2022-08-22T08:13:34.451Z,33.07
2022-08-22T08:16:05.238Z,32.95
2022-08-22T08:18:36.265Z,33.29
2022-08-22T08:21:08.724Z,33.29
2022-08-22T08:23:45.465Z,33.67
2022-08-22T08:26:21.867Z,33.88
2022-08-22T08:28:54.667Z,34.55
2022-08-22T08:31:44.637Z,34.14
2022-08-22T08:34:20.354Z,33.35
2022-08-22T08:36:52.030Z,33.21
2022-08-22T08:39:35.134Z,33.41
2022-08-22T08:42:09.217Z,33.77
2022-08-22T08:47:59.903Z,33.84
2022-08-22T08:51:06.640Z,33.96
2022-08-22T08:53:44.790Z,33.69
2022-08-22T08:56:19.875Z,34.26
2022-08-22T08:59:09.906Z,35.03
2022-08-22T09:02:09.035Z,35.07
2022-08-22T09:05:13.019Z,34.29
2022-08-22T09:07:50.436Z,34.31
2022-08-22T09:10:54.132Z,34.42
2022-08-22T09:17:21.140Z,33.80
2022-08-22T09:20:19.458Z,34.25
2022-08-22T09:23:05.203Z,34.21
2022-08-22T09:29:16.470Z,34.70
2022-08-22T09:32:05.776Z,34.16
2022-08-22T09:34:54.922Z,34.11
2022-08-22T09:37:58.656Z,34.60
2022-08-22T09:40:35.424Z,34.02
2022-08-22T09:43:13.210Z,34.27
2022-08-22T09:46:01.925Z,34.42
2022-08-22T09:49:07.140Z,34.54
2022-08-22T09:51:44.418Z,35.06
2022-08-22T09:54:18.852Z,34.71
2022-08-22T09:57:01.478Z,35.23
2022-08-22T09:59:48.111Z,34.65
2022-08-22T10:02:43.378Z,35.11
2022-08-22T10:05:40.402Z,35.35
2022-08-22T10:08:33.362Z,35.34
2022-08-22T10:11:23.855Z,36.33
2022-08-22T10:14:00.870Z,36.07
2022-08-22T10:16:57.815Z,35.61
2022-08-22T10:19:42.088Z,35.41
2022-08-22T10:22:47.733Z,36.23
2022-08-22T10:25:33.791Z,36.35
2022-08-22T10:28:22.359Z,36.79
2022-08-22T10:31:25.193Z,36.33
2022-08-22T10:34:02.182Z,36.53
2022-08-22T10:36:45.544Z,36.53
2022-08-22T10:39:23.831Z,35.90
2022-08-22T10:42:23.616Z,35.65
2022-08-22T10:45:16.504Z,35.56
2022-08-22T10:47:54.652Z,35.87
2022-08-22T10:50:36.939Z,35.59
2022-08-22T10:53:29.016Z,36.58
2022-08-22T10:56:06.702Z,36.92
2022-08-22T10:58:40.916Z,37.16
2022-08-22T11:01:37.808Z,37.23
2022-08-22T11:04:18.853Z,37.30
2022-08-22T11:07:14.772Z,36.87
2022-08-22T11:09:44.477Z,36.84
2022-08-22T11:12:41.721Z,37.75
2022-08-22T11:15:26.242Z,36.90
2022-08-22T11:18:21.248Z,37.34
2022-08-22T11:20:59.727Z,37.52
2022-08-22T11:23:43.024Z,37.91
2022-08-22T11:26:29.913Z,38.02
2022-08-22T11:29:18.804Z,36.51
2022-08-22T11:31:52.213Z,35.92
2022-08-22T11:34:38.612Z,38.38
2022-08-22T11:37:15.440Z,37.58
2022-08-22T11:39:57.652Z,37.90
2022-08-22T11:42:47.439Z,37.83
2022-08-22T11:45:23.954Z,37.98
2022-08-22T11:48:00.748Z,36.90
2022-08-22T11:50:35.304Z,36.21
2022-08-22T11:53:07.840Z,36.47
2022-08-22T11:56:05.787Z,36.65
2022-08-22T11:58:56.683Z,35.60
2022-08-22T12:01:37.107Z,36.38
2022-08-22T12:04:12.715Z,35.31
2022-08-22T12:07:11.190Z,36.33
2022-08-22T12:10:07.132Z,35.94
2022-08-22T12:13:06.399Z,36.26
2022-08-22T12:16:00.859Z,35.80
2022-08-22T12:18:56.500Z,35.72
2022-08-22T12:21:24.501Z,36.22
2022-08-22T12:24:00.904Z,36.67
2022-08-22T12:27:12.577Z,36.53
2022-08-22T12:30:05.284Z,36.65
2022-08-22T12:33:03.436Z,36.60
2022-08-22T12:35:42.494Z,37.85
2022-08-22T12:38:29.427Z,36.79
2022-08-22T12:41:28.529Z,36.59
2022-08-22T12:44:25.455Z,35.81
2022-08-22T12:47:02.828Z,36.25
2022-08-22T12:50:01.341Z,36.21
2022-08-22T12:52:59.033Z,36.80
2022-08-22T12:55:36.679Z,36.79
2022-08-22T12:58:56.089Z,37.00
2022-08-22T13:01:34.075Z,36.81
2022-08-22T13:04:08.238Z,36.97
2022-08-22T13:06:37.976Z,35.70
2022-08-22T13:09:28.915Z,34.99
2022-08-22T13:12:04.998Z,35.36
2022-08-22T13:14:35.125Z,34.66
2022-08-22T13:17:24.320Z,35.09
2022-08-22T13:20:21.267Z,34.74
2022-08-22T13:22:49.603Z,34.73
2022-08-22T13:25:26.587Z,35.25
2022-08-22T13:27:59.462Z,35.74
2022-08-22T13:30:33.930Z,35.70
2022-08-22T13:33:08.934Z,35.01
2022-08-22T13:35:44.785Z,35.31
2022-08-22T13:38:28.373Z,34.30
2022-08-22T13:41:02.344Z,33.98
2022-08-22T13:43:56.270Z,34.14
2022-08-22T13:46:28.676Z,34.29
2022-08-22T13:49:01.119Z,35.53
2022-08-22T13:51:40.388Z,35.31
2022-08-22T13:54:11.965Z,35.52
2022-08-22T13:56:50.629Z,35.79
2022-08-22T13:59:50.974Z,35.36
2022-08-22T14:02:47.925Z,34.82
2022-08-22T14:05:33.541Z,34.89
2022-08-22T14:08:12.666Z,33.98
2022-08-22T14:11:02.105Z,33.29
2022-08-22T14:13:49.653Z,33.09
2022-08-22T14:16:26.095Z,33.30
2022-08-22T14:19:06.124Z,33.83
2022-08-22T14:21:43.457Z,33.43
2022-08-22T14:24:45.750Z,32.96
2022-08-22T14:27:27.289Z,32.67
2022-08-22T14:30:01.665Z,32.29
2022-08-22T14:32:42.388Z,32.27
2022-08-22T14:35:34.691Z,31.97
2022-08-22T14:38:29.936Z,32.04
2022-08-22T14:41:05.766Z,32.27
2022-08-22T14:43:57.235Z,32.77
2022-08-22T14:46:31.936Z,33.08
2022-08-22T14:49:06.169Z,32.10
2022-08-22T14:51:34.034Z,31.66
2022-08-22T14:54:21.394Z,31.88
2022-08-22T14:56:52.432Z,32.08
2022-08-22T14:59:35.964Z,31.73
2022-08-22T15:02:10.569Z,31.52
2022-08-22T15:04:46.213Z,31.91
2022-08-22T15:07:33.856Z,31.52
2022-08-22T15:10:26.910Z,31.40
2022-08-22T15:13:03.274Z,31.41
2022-08-22T15:15:41.210Z,31.11
2022-08-22T15:18:35.336Z,30.95
2022-08-22T15:21:11.298Z,31.05
2022-08-22T15:23:45.189Z,30.64
2022-08-22T15:26:25.084Z,30.77
2022-08-22T15:29:04.322Z,30.66
2022-08-22T15:31:33.041Z,30.18
2022-08-22T15:34:13.634Z,30.30
2022-08-22T15:37:08.320Z,30.45
2022-08-22T15:39:58.510Z,30.27
2022-08-22T15:42:33.453Z,30.30
2022-08-22T15:45:02.672Z,29.70
2022-08-22T15:47:41.914Z,29.88
2022-08-22T15:50:27.680Z,29.47
2022-08-22T15:53:22.520Z,29.56
2022-08-22T15:56:05.627Z,29.36
2022-08-22T15:58:48.964Z,29.46
2022-08-22T16:01:22.385Z,29.23
2022-08-22T16:04:05.413Z,29.17
2022-08-22T16:06:55.233Z,29.32
2022-08-22T16:09:39.588Z,28.85
2022-08-22T16:12:27.093Z,28.81
2022-08-22T16:14:56.037Z,28.63
2022-08-22T16:17:45.504Z,28.22
2022-08-22T16:20:20.070Z,27.94
2022-08-22T16:22:57.000Z,28.24
2022-08-22T16:25:47.716Z,28.15
2022-08-22T16:28:41.380Z,27.92
2022-08-22T16:31:19.197Z,27.95
2022-08-22T16:33:48.201Z,27.57
2022-08-22T16:36:44.360Z,27.57
2022-08-22T16:39:24.074Z,27.29
2022-08-22T16:41:56.655Z,27.26
2022-08-22T16:44:30.406Z,27.08
2022-08-22T16:47:12.127Z,26.74
2022-08-22T16:49:52.163Z,26.75
2022-08-22T16:52:26.352Z,26.56
2022-08-22T16:58:11.084Z,26.21
2022-08-22T17:01:00.275Z,25.92
2022-08-22T17:04:09.804Z,25.93
2022-08-22T17:06:48.152Z,25.49
2022-08-22T17:09:43.453Z,25.58
2022-08-22T17:12:17.067Z,25.32
2022-08-22T17:15:12.523Z,25.34
2022-08-22T17:18:17.742Z,25.08
2022-08-22T17:20:56.422Z,24.91
2022-08-22T17:23:38.936Z,24.38
2022-08-22T17:26:28.538Z,24.52
2022-08-22T17:29:27.299Z,23.85
2022-08-22T17:32:17.063Z,23.72
2022-08-22T17:34:58.841Z,23.67
2022-08-22T17:37:38.067Z,23.55
2022-08-22T17:40:36.675Z,23.52
2022-08-22T17:43:07.882Z,23.38
2022-08-22T17:45:50.742Z,23.87
2022-08-22T17:48:26.156Z,23.61
2022-08-22T17:51:13.591Z,23.80
2022-08-22T17:53:50.923Z,23.60
2022-08-22T17:56:41.338Z,23.54
2022-08-22T17:59:28.243Z,23.77
2022-08-22T18:02:02.451Z,23.67
2022-08-22T18:05:16.756Z,23.59
2022-08-22T18:07:50.618Z,23.36
2022-08-22T18:10:25.336Z,23.46
2022-08-22T18:13:07.359Z,23.59
2022-08-22T18:15:52.646Z,23.02
2022-08-22T18:18:32.283Z,23.21
2022-08-22T18:21:06.463Z,22.98
2022-08-22T18:23:41.742Z,22.96
2022-08-22T18:29:53.595Z,22.77
2022-08-22T18:32:29.669Z,22.51
2022-08-22T18:35:10.657Z,22.65
2022-08-22T18:37:47.045Z,22.77
2022-08-22T18:40:49.687Z,22.74
2022-08-22T18:43:24.296Z,23.49
2022-08-22T18:45:52.079Z,23.39
2022-08-22T18:48:29.884Z,23.35
2022-08-22T18:51:38.267Z,22.68
2022-08-22T18:54:11.462Z,22.70
2022-08-22T18:57:17.454Z,22.06
2022-08-22T18:59:57.697Z,22.05
2022-08-22T19:02:28.551Z,21.87
2022-08-22T19:05:15.272Z,21.95
2022-08-22T19:07:52.286Z,21.88
2022-08-22T19:10:48.006Z,21.89
2022-08-22T19:13:28.899Z,21.53
2022-08-22T19:16:23.046Z,21.76
2022-08-22T19:19:17.411Z,21.14
2022-08-22T19:22:19.699Z,21.46
2022-08-22T19:25:09.186Z,21.58
2022-08-22T19:27:58.316Z,21.69
2022-08-22T19:30:41.732Z,21.36
2022-08-22T19:33:19.949Z,21.30
2022-08-22T19:35:54.847Z,20.67
2022-08-22T19:38:54.270Z,20.61
2022-08-22T19:41:45.670Z,20.89
2022-08-22T19:44:20.044Z,21.15
2022-08-22T19:47:18.304Z,21.13
2022-08-22T19:50:00.748Z,21.20
2022-08-22T19:52:34.305Z,21.10
2022-08-22T19:55:19.124Z,20.67
2022-08-22T19:57:58.858Z,20.88
2022-08-22T20:00:53.634Z,21.22
2022-08-22T20:03:37.748Z,21.12
2022-08-22T20:06:43.569Z,20.72
2022-08-22T20:09:28.990Z,20.50
2022-08-22T20:12:22.765Z,19.92
2022-08-22T20:14:51.570Z,20.13
2022-08-22T20:17:25.293Z,19.84
2022-08-22T20:20:19.239Z,19.87
2022-08-22T20:23:06.118Z,20.00
2022-08-22T20:25:49.627Z,19.78
2022-08-22T20:28:34.872Z,20.24
2022-08-22T20:31:07.875Z,19.50
2022-08-22T20:33:40.507Z,19.41
2022-08-22T20:36:27.615Z,19.40
2022-08-22T20:39:15.447Z,19.54
2022-08-22T20:41:50.144Z,19.51
2022-08-22T20:44:28.667Z,19.34
2022-08-22T20:47:06.022Z,19.78
2022-08-22T20:49:46.790Z,19.46
2022-08-22T20:52:32.653Z,19.39
2022-08-22T20:55:12.522Z,19.16
2022-08-22T20:57:55.842Z,19.28
2022-08-22T21:00:44.796Z,19.60
2022-08-22T21:03:25.541Z,19.42
2022-08-22T21:05:53.297Z,19.76
2022-08-22T21:08:26.368Z,19.44
2022-08-22T21:11:20.457Z,19.26
2022-08-22T21:13:49.554Z,19.29
2022-08-22T21:16:31.689Z,18.86
2022-08-22T21:19:04.778Z,18.95
2022-08-22T21:21:34.773Z,19.00
2022-08-22T21:24:06.641Z,18.72
2022-08-22T21:26:46.901Z,18.50
2022-08-22T21:29:14.991Z,18.97
2022-08-22T21:31:59.066Z,18.69
2022-08-22T21:34:41.734Z,18.80
2022-08-22T21:37:22.880Z,18.82
2022-08-22T21:39:59.580Z,18.68
2022-08-22T21:42:35.701Z,18.76
2022-08-22T21:45:08.590Z,18.60
2022-08-22T21:47:40.251Z,18.42
2022-08-22T21:50:25.028Z,18.39
2022-08-22T21:52:55.846Z,18.51
2022-08-22T21:55:36.239Z,18.74
2022-08-22T21:58:35.025Z,18.64
2022-08-22T22:01:25.056Z,18.44
2022-08-22T22:03:55.921Z,18.41
2022-08-22T22:06:23.599Z,18.62
2022-08-22T22:08:51.429Z,18.59
2022-08-22T22:11:19.725Z,18.06
2022-08-22T22:13:47.607Z,18.23
2022-08-22T22:16:21.387Z,18.05
2022-08-22T22:18:49.522Z,17.80
2022-08-22T22:21:18.730Z,18.05
2022-08-22T22:23:46.819Z,18.34
2022-08-22T22:26:15.061Z,18.35
2022-08-22T22:28:50.067Z,18.28
2022-08-22T22:31:18.631Z,18.32
2022-08-22T22:33:46.671Z,18.24
2022-08-22T22:36:23.972Z,18.29
2022-08-22T22:38:53.796Z,18.18
2022-08-22T22:41:25.841Z,18.05
2022-08-22T22:43:55.164Z,18.14
2022-08-22T22:46:23.295Z,18.38
2022-08-22T22:48:51.159Z,18.22
2022-08-22T22:51:20.115Z,18.52
2022-08-22T22:53:47.889Z,18.45
2022-08-22T22:56:20.684Z,18.22
2022-08-22T22:59:01.025Z,18.34
2022-08-22T23:02:01.815Z,18.14
2022-08-22T23:04:31.416Z,18.26
2022-08-22T23:06:59.288Z,18.28
2022-08-22T23:09:28.280Z,18.25
2022-08-22T23:12:08.383Z,18.35
2022-08-22T23:14:36.431Z,18.18
2022-08-22T23:17:04.671Z,18.18
2022-08-22T23:19:33.324Z,18.22
2022-08-22T23:22:02.361Z,18.27
2022-08-22T23:24:34.077Z,18.38
2022-08-22T23:27:02.945Z,18.31
2022-08-22T23:29:30.753Z,18.40
2022-08-22T23:32:01.778Z,18.11
2022-08-22T23:34:36.365Z,18.19
2022-08-22T23:39:52.358Z,17.99
2022-08-22T23:42:20.226Z,18.22
2022-08-22T23:44:48.459Z,18.17
2022-08-22T23:47:16.753Z,17.85
2022-08-22T23:49:44.846Z,17.77
2022-08-22T23:52:13.681Z,17.84
2022-08-22T23:54:42.182Z,17.77
2022-08-22T23:57:12.073Z,17.67
2022-08-22T23:59:48.454Z,17.85
